Kansas City, Missouri
Current Conditions -  °F | °C
As of 11:54 AM on Wednesday 26 Nov 2014 (Local Time) from KMKC Reporting Station
Overcast Overcast  
Wind Chill:   Ceiling: 3000
Heat Index:   Visibility: 10mi
Dew Point: -1°   Wind: 18mph
Humidity: 65%   Direction: 300°WNW
Pressure: 30"   Gusts: 26mph
Location:  39.1°N, 94.58°W
Report Text: KMKC 261754Z 30016G23KT 10SM OVC030 06/M01 A3000 RMK AO2 PK WND 30030/1730 RAB23E42 SLP162 P0000 60000 T00561006 10061 20022 51012
Loading
Personal Weather Stations






























Interactive Weather Map New forecast layout! Learn more

10-Day Weather Forecast

Advertisements
Track Severe Weather on mobile